sensor_id;sensor_type;location;lat;lon;timestamp;P1;durP1;ratioP1;P2;durP2;ratioP2
58015;SDS011;43809;52.110;20.964;2023-12-04T00:00:13;33.25;;;18.35;;
58015;SDS011;43809;52.110;20.964;2023-12-04T00:04:44;31.92;;;18.95;;
58015;SDS011;43809;52.110;20.964;2023-12-04T00:06:45;34.45;;;18.48;;
58015;SDS011;43809;52.110;20.964;2023-12-04T00:08:46;30.30;;;17.42;;
58015;SDS011;43809;52.110;20.964;2023-12-04T00:16:29;30.40;;;18.63;;
58015;SDS011;43809;52.110;20.964;2023-12-04T00:18:33;31.85;;;18.60;;
58015;SDS011;43809;52.110;20.964;2023-12-04T00:20:34;32.85;;;18.45;;
58015;SDS011;43809;52.110;20.964;2023-12-04T00:28:08;29.83;;;17.58;;
58015;SDS011;43809;52.110;20.964;2023-12-04T00:30:09;32.97;;;18.20;;
58015;SDS011;43809;52.110;20.964;2023-12-04T00:34:27;31.73;;;16.77;;
58015;SDS011;43809;52.110;20.964;2023-12-04T00:36:28;34.50;;;17.38;;
58015;SDS011;43809;52.110;20.964;2023-12-04T00:38:29;34.20;;;20.02;;
58015;SDS011;43809;52.110;20.964;2023-12-04T00:46:51;30.98;;;16.55;;
58015;SDS011;43809;52.110;20.964;2023-12-04T00:48:51;37.30;;;19.92;;
58015;SDS011;43809;52.110;20.964;2023-12-04T00:53:43;34.70;;;19.98;;
58015;SDS011;43809;52.110;20.964;2023-12-04T00:55:44;33.83;;;19.27;;
58015;SDS011;43809;52.110;20.964;2023-12-04T00:57:44;35.42;;;20.98;;
58015;SDS011;43809;52.110;20.964;2023-12-04T00:59:45;34.88;;;20.02;;
58015;SDS011;43809;52.110;20.964;2023-12-04T01:01:46;35.80;;;19.45;;
58015;SDS011;43809;52.110;20.964;2023-12-04T01:03:47;36.25;;;20.30;;
58015;SDS011;43809;52.110;20.964;2023-12-04T01:05:48;32.70;;;18.90;;
58015;SDS011;43809;52.110;20.964;2023-12-04T01:07:49;34.70;;;19.95;;
58015;SDS011;43809;52.110;20.964;2023-12-04T01:09:49;37.75;;;21.55;;
58015;SDS011;43809;52.110;20.964;2023-12-04T01:11:53;34.72;;;20.00;;
58015;SDS011;43809;52.110;20.964;2023-12-04T01:13:54;37.10;;;21.13;;
58015;SDS011;43809;52.110;20.964;2023-12-04T01:15:55;35.95;;;20.27;;
58015;SDS011;43809;52.110;20.964;2023-12-04T01:17:56;38.30;;;21.35;;
58015;SDS011;43809;52.110;20.964;2023-12-04T01:19:57;34.80;;;19.40;;
58015;SDS011;43809;52.110;20.964;2023-12-04T01:24:43;36.67;;;19.38;;
58015;SDS011;43809;52.110;20.964;2023-12-04T01:26:43;34.60;;;19.48;;
58015;SDS011;43809;52.110;20.964;2023-12-04T01:28:44;33.60;;;19.17;;
58015;SDS011;43809;52.110;20.964;2023-12-04T01:30:45;34.60;;;19.67;;
58015;SDS011;43809;52.110;20.964;2023-12-04T01:32:46;34.28;;;19.98;;
58015;SDS011;43809;52.110;20.964;2023-12-04T01:37:57;32.03;;;18.95;;
58015;SDS011;43809;52.110;20.964;2023-12-04T01:39:57;34.80;;;19.05;;
58015;SDS011;43809;52.110;20.964;2023-12-04T01:41:58;33.97;;;19.13;;
58015;SDS011;43809;52.110;20.964;2023-12-04T01:43:59;36.67;;;21.10;;
58015;SDS011;43809;52.110;20.964;2023-12-04T01:46:00;31.13;;;18.35;;
58015;SDS011;43809;52.110;20.964;2023-12-04T01:48:01;30.35;;;17.67;;
58015;SDS011;43809;52.110;20.964;2023-12-04T01:52:29;27.30;;;15.20;;
58015;SDS011;43809;52.110;20.964;2023-12-04T01:54:30;25.95;;;15.15;;
58015;SDS011;43809;52.110;20.964;2023-12-04T01:56:31;23.98;;;15.65;;
58015;SDS011;43809;52.110;20.964;2023-12-04T01:58:33;26.85;;;15.52;;
58015;SDS011;43809;52.110;20.964;2023-12-04T02:00:34;26.83;;;15.48;;
58015;SDS011;43809;52.110;20.964;2023-12-04T02:02:35;23.50;;;13.95;;
58015;SDS011;43809;52.110;20.964;2023-12-04T02:04:36;25.08;;;14.35;;
58015;SDS011;43809;52.110;20.964;2023-12-04T02:06:36;24.05;;;15.52;;
58015;SDS011;43809;52.110;20.964;2023-12-04T02:08:37;22.85;;;12.80;;
58015;SDS011;43809;52.110;20.964;2023-12-04T02:10:39;21.33;;;12.73;;
58015;SDS011;43809;52.110;20.964;2023-12-04T02:15:10;21.98;;;12.70;;
58015;SDS011;43809;52.110;20.964;2023-12-04T02:17:11;22.40;;;13.57;;
58015;SDS011;43809;52.110;20.964;2023-12-04T02:19:13;21.67;;;13.83;;
58015;SDS011;43809;52.110;20.964;2023-12-04T02:21:14;22.85;;;14.38;;
58015;SDS011;43809;52.110;20.964;2023-12-04T02:23:14;21.85;;;12.85;;
58015;SDS011;43809;52.110;20.964;2023-12-04T02:27:39;21.98;;;12.40;;
58015;SDS011;43809;52.110;20.964;2023-12-04T02:35:31;19.77;;;12.55;;
58015;SDS011;43809;52.110;20.964;2023-12-04T02:40:01;21.73;;;13.40;;
58015;SDS011;43809;52.110;20.964;2023-12-04T02:42:04;21.92;;;13.30;;
58015;SDS011;43809;52.110;20.964;2023-12-04T02:44:05;22.20;;;12.65;;
58015;SDS011;43809;52.110;20.964;2023-12-04T02:46:05;22.00;;;13.70;;
58015;SDS011;43809;52.110;20.964;2023-12-04T02:48:06;21.95;;;13.63;;
58015;SDS011;43809;52.110;20.964;2023-12-04T02:50:07;24.00;;;13.80;;
58015;SDS011;43809;52.110;20.964;2023-12-04T02:52:08;22.77;;;14.18;;
58015;SDS011;43809;52.110;20.964;2023-12-04T02:54:09;22.98;;;14.40;;
58015;SDS011;43809;52.110;20.964;2023-12-04T02:56:10;24.73;;;14.93;;
58015;SDS011;43809;52.110;20.964;2023-12-04T02:58:11;21.67;;;12.63;;
58015;SDS011;43809;52.110;20.964;2023-12-04T03:00:12;25.45;;;14.93;;
58015;SDS011;43809;52.110;20.964;2023-12-04T03:02:12;21.38;;;13.48;;
58015;SDS011;43809;52.110;20.964;2023-12-04T03:04:13;20.60;;;12.48;;
58015;SDS011;43809;52.110;20.964;2023-12-04T03:06:14;24.58;;;13.75;;
58015;SDS011;43809;52.110;20.964;2023-12-04T03:08:16;23.73;;;14.00;;
58015;SDS011;43809;52.110;20.964;2023-12-04T03:10:17;23.30;;;13.10;;
58015;SDS011;43809;52.110;20.964;2023-12-04T03:12:20;24.02;;;13.65;;
58015;SDS011;43809;52.110;20.964;2023-12-04T03:14:20;22.52;;;13.35;;
58015;SDS011;43809;52.110;20.964;2023-12-04T03:16:21;20.25;;;12.80;;
58015;SDS011;43809;52.110;20.964;2023-12-04T03:18:22;22.58;;;12.90;;
58015;SDS011;43809;52.110;20.964;2023-12-04T03:20:25;20.95;;;11.88;;
58015;SDS011;43809;52.110;20.964;2023-12-04T03:22:26;22.25;;;13.88;;
58015;SDS011;43809;52.110;20.964;2023-12-04T03:24:27;20.00;;;12.63;;
58015;SDS011;43809;52.110;20.964;2023-12-04T03:26:27;22.58;;;12.70;;
58015;SDS011;43809;52.110;20.964;2023-12-04T03:28:29;22.73;;;13.18;;
58015;SDS011;43809;52.110;20.964;2023-12-04T03:30:30;21.75;;;13.70;;
58015;SDS011;43809;52.110;20.964;2023-12-04T03:32:30;23.58;;;12.77;;
58015;SDS011;43809;52.110;20.964;2023-12-04T03:34:31;23.33;;;13.13;;
58015;SDS011;43809;52.110;20.964;2023-12-04T03:36:32;22.65;;;12.52;;
58015;SDS011;43809;52.110;20.964;2023-12-04T03:38:32;20.45;;;11.88;;
58015;SDS011;43809;52.110;20.964;2023-12-04T03:40:33;21.17;;;12.18;;
58015;SDS011;43809;52.110;20.964;2023-12-04T03:42:34;25.30;;;13.45;;
58015;SDS011;43809;52.110;20.964;2023-12-04T03:47:45;23.25;;;13.25;;
58015;SDS011;43809;52.110;20.964;2023-12-04T03:49:46;22.13;;;12.63;;
58015;SDS011;43809;52.110;20.964;2023-12-04T03:51:46;22.27;;;13.60;;
58015;SDS011;43809;52.110;20.964;2023-12-04T03:53:47;26.30;;;13.43;;
58015;SDS011;43809;52.110;20.964;2023-12-04T03:55:48;21.90;;;13.38;;
58015;SDS011;43809;52.110;20.964;2023-12-04T03:57:49;23.38;;;13.63;;
58015;SDS011;43809;52.110;20.964;2023-12-04T04:02:27;23.83;;;13.98;;
58015;SDS011;43809;52.110;20.964;2023-12-04T04:04:28;22.55;;;13.93;;
58015;SDS011;43809;52.110;20.964;2023-12-04T04:06:29;24.90;;;14.07;;
58015;SDS011;43809;52.110;20.964;2023-12-04T04:08:30;24.02;;;14.38;;
58015;SDS011;43809;52.110;20.964;2023-12-04T04:10:30;24.58;;;14.57;;
58015;SDS011;43809;52.110;20.964;2023-12-04T04:12:32;23.43;;;13.80;;
58015;SDS011;43809;52.110;20.964;2023-12-04T04:14:33;25.90;;;14.43;;
58015;SDS011;43809;52.110;20.964;2023-12-04T04:16:34;21.95;;;13.70;;
58015;SDS011;43809;52.110;20.964;2023-12-04T04:18:35;22.02;;;13.52;;
58015;SDS011;43809;52.110;20.964;2023-12-04T04:20:35;25.85;;;14.25;;
58015;SDS011;43809;52.110;20.964;2023-12-04T04:22:36;26.65;;;14.75;;
58015;SDS011;43809;52.110;20.964;2023-12-04T04:24:39;21.45;;;13.30;;
58015;SDS011;43809;52.110;20.964;2023-12-04T04:26:39;22.83;;;13.88;;
58015;SDS011;43809;52.110;20.964;2023-12-04T04:28:40;22.48;;;13.13;;
58015;SDS011;43809;52.110;20.964;2023-12-04T04:30:41;23.83;;;14.45;;
58015;SDS011;43809;52.110;20.964;2023-12-04T04:32:42;27.05;;;15.32;;
58015;SDS011;43809;52.110;20.964;2023-12-04T04:34:42;26.35;;;14.75;;
58015;SDS011;43809;52.110;20.964;2023-12-04T04:36:43;24.20;;;15.10;;
58015;SDS011;43809;52.110;20.964;2023-12-04T04:38:44;21.15;;;12.95;;
58015;SDS011;43809;52.110;20.964;2023-12-04T04:40:45;23.17;;;13.77;;
58015;SDS011;43809;52.110;20.964;2023-12-04T04:42:46;22.48;;;13.45;;
58015;SDS011;43809;52.110;20.964;2023-12-04T04:44:46;24.48;;;14.45;;
58015;SDS011;43809;52.110;20.964;2023-12-04T04:46:47;23.10;;;13.95;;
58015;SDS011;43809;52.110;20.964;2023-12-04T04:48:48;25.52;;;14.50;;
58015;SDS011;43809;52.110;20.964;2023-12-04T04:50:49;23.88;;;14.65;;
58015;SDS011;43809;52.110;20.964;2023-12-04T04:52:50;25.60;;;14.27;;
58015;SDS011;43809;52.110;20.964;2023-12-04T04:54:53;21.40;;;13.52;;
58015;SDS011;43809;52.110;20.964;2023-12-04T04:57:01;25.27;;;14.77;;
58015;SDS011;43809;52.110;20.964;2023-12-04T04:59:02;21.42;;;12.88;;
58015;SDS011;43809;52.110;20.964;2023-12-04T05:01:04;20.80;;;12.75;;
58015;SDS011;43809;52.110;20.964;2023-12-04T05:03:04;23.05;;;13.80;;
58015;SDS011;43809;52.110;20.964;2023-12-04T05:05:06;24.80;;;14.68;;
58015;SDS011;43809;52.110;20.964;2023-12-04T05:16:01;28.48;;;15.25;;
58015;SDS011;43809;52.110;20.964;2023-12-04T05:18:02;23.92;;;13.73;;
58015;SDS011;43809;52.110;20.964;2023-12-04T05:20:03;24.48;;;14.90;;
58015;SDS011;43809;52.110;20.964;2023-12-04T05:24:59;25.08;;;14.25;;
58015;SDS011;43809;52.110;20.964;2023-12-04T05:27:09;21.75;;;13.38;;
58015;SDS011;43809;52.110;20.964;2023-12-04T05:29:10;26.27;;;14.50;;
58015;SDS011;43809;52.110;20.964;2023-12-04T05:31:11;25.42;;;14.50;;
58015;SDS011;43809;52.110;20.964;2023-12-04T05:33:11;28.80;;;15.65;;
58015;SDS011;43809;52.110;20.964;2023-12-04T05:35:12;25.27;;;13.98;;
58015;SDS011;43809;52.110;20.964;2023-12-04T05:40:28;27.25;;;14.68;;
58015;SDS011;43809;52.110;20.964;2023-12-04T05:42:29;23.20;;;14.07;;
58015;SDS011;43809;52.110;20.964;2023-12-04T05:44:30;27.50;;;15.40;;
58015;SDS011;43809;52.110;20.964;2023-12-04T05:46:31;22.63;;;13.90;;
58015;SDS011;43809;52.110;20.964;2023-12-04T05:48:34;24.45;;;13.38;;
58015;SDS011;43809;52.110;20.964;2023-12-04T05:50:35;28.00;;;14.68;;
58015;SDS011;43809;52.110;20.964;2023-12-04T05:58:06;24.98;;;13.82;;
58015;SDS011;43809;52.110;20.964;2023-12-04T06:00:07;26.52;;;15.55;;
58015;SDS011;43809;52.110;20.964;2023-12-04T06:04:54;25.77;;;14.60;;
58015;SDS011;43809;52.110;20.964;2023-12-04T06:06:55;26.10;;;14.93;;
58015;SDS011;43809;52.110;20.964;2023-12-04T06:08:56;24.10;;;13.68;;
58015;SDS011;43809;52.110;20.964;2023-12-04T06:10:57;23.02;;;13.98;;
58015;SDS011;43809;52.110;20.964;2023-12-04T06:12:58;25.08;;;14.57;;
58015;SDS011;43809;52.110;20.964;2023-12-04T06:14:59;25.60;;;15.55;;
58015;SDS011;43809;52.110;20.964;2023-12-04T06:16:59;23.60;;;14.30;;
58015;SDS011;43809;52.110;20.964;2023-12-04T06:19:00;25.88;;;14.52;;
58015;SDS011;43809;52.110;20.964;2023-12-04T06:21:01;26.27;;;15.10;;
58015;SDS011;43809;52.110;20.964;2023-12-04T06:23:02;25.50;;;15.25;;
58015;SDS011;43809;52.110;20.964;2023-12-04T06:25:05;28.13;;;15.80;;
58015;SDS011;43809;52.110;20.964;2023-12-04T06:29:34;25.92;;;15.70;;
58015;SDS011;43809;52.110;20.964;2023-12-04T06:31:36;26.35;;;14.38;;
58015;SDS011;43809;52.110;20.964;2023-12-04T06:33:36;28.13;;;15.98;;
58015;SDS011;43809;52.110;20.964;2023-12-04T06:35:38;29.02;;;16.33;;
58015;SDS011;43809;52.110;20.964;2023-12-04T06:37:39;29.52;;;16.17;;
58015;SDS011;43809;52.110;20.964;2023-12-04T06:39:42;31.38;;;16.45;;
58015;SDS011;43809;52.110;20.964;2023-12-04T06:41:45;33.05;;;17.40;;
58015;SDS011;43809;52.110;20.964;2023-12-04T06:43:47;33.90;;;18.58;;
58015;SDS011;43809;52.110;20.964;2023-12-04T06:45:48;31.33;;;16.98;;
58015;SDS011;43809;52.110;20.964;2023-12-04T06:47:50;27.35;;;16.20;;
58015;SDS011;43809;52.110;20.964;2023-12-04T06:49:51;33.72;;;18.48;;
58015;SDS011;43809;52.110;20.964;2023-12-04T06:55:06;26.58;;;14.20;;
58015;SDS011;43809;52.110;20.964;2023-12-04T06:57:09;28.42;;;15.40;;
58015;SDS011;43809;52.110;20.964;2023-12-04T06:59:09;27.58;;;15.85;;
58015;SDS011;43809;52.110;20.964;2023-12-04T07:01:10;32.42;;;17.48;;
58015;SDS011;43809;52.110;20.964;2023-12-04T07:03:11;26.35;;;14.95;;
58015;SDS011;43809;52.110;20.964;2023-12-04T07:05:12;28.42;;;15.27;;
58015;SDS011;43809;52.110;20.964;2023-12-04T07:07:12;33.03;;;17.38;;
58015;SDS011;43809;52.110;20.964;2023-12-04T07:09:13;35.28;;;20.33;;
58015;SDS011;43809;52.110;20.964;2023-12-04T07:11:14;38.40;;;19.55;;
58015;SDS011;43809;52.110;20.964;2023-12-04T07:13:18;34.33;;;18.98;;
58015;SDS011;43809;52.110;20.964;2023-12-04T07:15:19;32.22;;;18.45;;
58015;SDS011;43809;52.110;20.964;2023-12-04T07:17:20;35.00;;;19.17;;
58015;SDS011;43809;52.110;20.964;2023-12-04T07:19:23;33.00;;;17.83;;
58015;SDS011;43809;52.110;20.964;2023-12-04T07:21:25;33.63;;;18.85;;
58015;SDS011;43809;52.110;20.964;2023-12-04T07:23:26;34.53;;;17.43;;
58015;SDS011;43809;52.110;20.964;2023-12-04T07:25:38;33.70;;;16.67;;
58015;SDS011;43809;52.110;20.964;2023-12-04T07:27:41;32.38;;;17.40;;
58015;SDS011;43809;52.110;20.964;2023-12-04T07:29:42;33.25;;;16.88;;
58015;SDS011;43809;52.110;20.964;2023-12-04T07:31:43;30.75;;;16.75;;
58015;SDS011;43809;52.110;20.964;2023-12-04T07:33:44;33.13;;;17.90;;
58015;SDS011;43809;52.110;20.964;2023-12-04T07:35:45;36.67;;;19.17;;
58015;SDS011;43809;52.110;20.964;2023-12-04T07:40:19;30.88;;;16.50;;
58015;SDS011;43809;52.110;20.964;2023-12-04T07:42:19;30.75;;;17.10;;
58015;SDS011;43809;52.110;20.964;2023-12-04T07:44:20;29.67;;;15.95;;
58015;SDS011;43809;52.110;20.964;2023-12-04T07:46:21;31.10;;;16.95;;
58015;SDS011;43809;52.110;20.964;2023-12-04T07:48:22;33.30;;;17.75;;
58015;SDS011;43809;52.110;20.964;2023-12-04T07:50:23;34.22;;;17.63;;
58015;SDS011;43809;52.110;20.964;2023-12-04T08:01:55;28.20;;;14.13;;
58015;SDS011;43809;52.110;20.964;2023-12-04T08:03:56;32.15;;;17.00;;
58015;SDS011;43809;52.110;20.964;2023-12-04T08:06:00;31.95;;;16.42;;
58015;SDS011;43809;52.110;20.964;2023-12-04T08:08:01;33.15;;;17.70;;
58015;SDS011;43809;52.110;20.964;2023-12-04T08:10:01;31.27;;;15.93;;
58015;SDS011;43809;52.110;20.964;2023-12-04T08:15:13;29.70;;;14.73;;
58015;SDS011;43809;52.110;20.964;2023-12-04T08:17:13;29.63;;;15.98;;
58015;SDS011;43809;52.110;20.964;2023-12-04T08:19:15;30.83;;;16.40;;
58015;SDS011;43809;52.110;20.964;2023-12-04T08:21:16;32.40;;;16.45;;
58015;SDS011;43809;52.110;20.964;2023-12-04T08:23:17;31.95;;;16.42;;
58015;SDS011;43809;52.110;20.964;2023-12-04T08:25:18;28.88;;;14.68;;
58015;SDS011;43809;52.110;20.964;2023-12-04T08:27:19;28.48;;;15.02;;
58015;SDS011;43809;52.110;20.964;2023-12-04T08:29:19;29.38;;;14.82;;
58015;SDS011;43809;52.110;20.964;2023-12-04T08:31:20;31.95;;;17.50;;
58015;SDS011;43809;52.110;20.964;2023-12-04T08:33:21;33.50;;;16.08;;
58015;SDS011;43809;52.110;20.964;2023-12-04T08:35:22;31.65;;;15.75;;
58015;SDS011;43809;52.110;20.964;2023-12-04T08:37:22;34.28;;;15.88;;
58015;SDS011;43809;52.110;20.964;2023-12-04T08:39:23;29.75;;;15.07;;
58015;SDS011;43809;52.110;20.964;2023-12-04T08:41:24;31.90;;;15.73;;
58015;SDS011;43809;52.110;20.964;2023-12-04T08:43:25;28.92;;;15.30;;
58015;SDS011;43809;52.110;20.964;2023-12-04T08:45:25;28.95;;;14.88;;
58015;SDS011;43809;52.110;20.964;2023-12-04T08:47:26;30.50;;;15.23;;
58015;SDS011;43809;52.110;20.964;2023-12-04T08:49:27;30.60;;;15.68;;
58015;SDS011;43809;52.110;20.964;2023-12-04T08:51:28;28.15;;;14.40;;
58015;SDS011;43809;52.110;20.964;2023-12-04T08:53:28;30.02;;;16.02;;
58015;SDS011;43809;52.110;20.964;2023-12-04T08:55:29;28.77;;;15.07;;
58015;SDS011;43809;52.110;20.964;2023-12-04T08:57:30;29.95;;;15.65;;
58015;SDS011;43809;52.110;20.964;2023-12-04T08:59:31;29.00;;;15.02;;
58015;SDS011;43809;52.110;20.964;2023-12-04T09:01:31;25.55;;;13.65;;
58015;SDS011;43809;52.110;20.964;2023-12-04T09:03:32;25.33;;;14.80;;
58015;SDS011;43809;52.110;20.964;2023-12-04T09:05:33;31.88;;;16.27;;
58015;SDS011;43809;52.110;20.964;2023-12-04T09:07:35;27.23;;;14.55;;
58015;SDS011;43809;52.110;20.964;2023-12-04T09:09:35;27.67;;;14.25;;
58015;SDS011;43809;52.110;20.964;2023-12-04T09:11:40;26.50;;;13.82;;
58015;SDS011;43809;52.110;20.964;2023-12-04T09:13:41;26.80;;;14.52;;
58015;SDS011;43809;52.110;20.964;2023-12-04T09:15:41;29.38;;;14.63;;
58015;SDS011;43809;52.110;20.964;2023-12-04T09:17:42;27.95;;;14.38;;
58015;SDS011;43809;52.110;20.964;2023-12-04T09:19:53;26.45;;;13.63;;
58015;SDS011;43809;52.110;20.964;2023-12-04T09:21:54;28.98;;;14.60;;
58015;SDS011;43809;52.110;20.964;2023-12-04T09:23:55;25.45;;;13.75;;
58015;SDS011;43809;52.110;20.964;2023-12-04T09:25:56;25.08;;;14.10;;
58015;SDS011;43809;52.110;20.964;2023-12-04T09:28:01;26.67;;;14.80;;
58015;SDS011;43809;52.110;20.964;2023-12-04T09:30:01;28.30;;;15.32;;
58015;SDS011;43809;52.110;20.964;2023-12-04T09:32:08;28.27;;;15.45;;
58015;SDS011;43809;52.110;20.964;2023-12-04T09:34:25;30.23;;;15.20;;
58015;SDS011;43809;52.110;20.964;2023-12-04T09:36:26;29.83;;;15.23;;
58015;SDS011;43809;52.110;20.964;2023-12-04T09:38:57;33.90;;;15.95;;
58015;SDS011;43809;52.110;20.964;2023-12-04T09:40:58;31.38;;;16.38;;
58015;SDS011;43809;52.110;20.964;2023-12-04T09:43:02;31.92;;;16.55;;
58015;SDS011;43809;52.110;20.964;2023-12-04T09:45:04;29.40;;;14.23;;
58015;SDS011;43809;52.110;20.964;2023-12-04T09:47:14;34.15;;;17.33;;
58015;SDS011;43809;52.110;20.964;2023-12-04T09:49:15;28.85;;;15.35;;
58015;SDS011;43809;52.110;20.964;2023-12-04T09:51:18;28.92;;;15.32;;
58015;SDS011;43809;52.110;20.964;2023-12-04T09:53:19;33.38;;;15.77;;
58015;SDS011;43809;52.110;20.964;2023-12-04T09:55:20;27.63;;;14.93;;
58015;SDS011;43809;52.110;20.964;2023-12-04T09:57:21;35.58;;;17.35;;
58015;SDS011;43809;52.110;20.964;2023-12-04T09:59:23;28.35;;;15.90;;
58015;SDS011;43809;52.110;20.964;2023-12-04T10:01:28;28.10;;;14.88;;
58015;SDS011;43809;52.110;20.964;2023-12-04T10:03:29;32.45;;;17.45;;
58015;SDS011;43809;52.110;20.964;2023-12-04T10:11:14;32.78;;;16.65;;
58015;SDS011;43809;52.110;20.964;2023-12-04T10:13:15;27.17;;;15.65;;
58015;SDS011;43809;52.110;20.964;2023-12-04T10:15:16;24.95;;;13.88;;
58015;SDS011;43809;52.110;20.964;2023-12-04T10:17:16;28.85;;;15.20;;
58015;SDS011;43809;52.110;20.964;2023-12-04T10:19:23;31.27;;;16.00;;
58015;SDS011;43809;52.110;20.964;2023-12-04T10:21:31;30.38;;;15.02;;
58015;SDS011;43809;52.110;20.964;2023-12-04T10:23:39;27.58;;;14.82;;
58015;SDS011;43809;52.110;20.964;2023-12-04T10:25:40;31.05;;;14.95;;
58015;SDS011;43809;52.110;20.964;2023-12-04T10:27:41;30.45;;;15.75;;
58015;SDS011;43809;52.110;20.964;2023-12-04T10:29:48;28.23;;;15.90;;
58015;SDS011;43809;52.110;20.964;2023-12-04T10:31:50;28.88;;;14.25;;
58015;SDS011;43809;52.110;20.964;2023-12-04T10:33:51;35.40;;;17.60;;
58015;SDS011;43809;52.110;20.964;2023-12-04T10:35:51;33.30;;;17.27;;
58015;SDS011;43809;52.110;20.964;2023-12-04T10:37:53;32.50;;;16.80;;
58015;SDS011;43809;52.110;20.964;2023-12-04T10:39:54;33.92;;;17.75;;
58015;SDS011;43809;52.110;20.964;2023-12-04T10:42:09;32.42;;;16.77;;
58015;SDS011;43809;52.110;20.964;2023-12-04T10:44:17;34.17;;;17.25;;
58015;SDS011;43809;52.110;20.964;2023-12-04T10:46:18;32.90;;;17.08;;
58015;SDS011;43809;52.110;20.964;2023-12-04T10:48:22;33.87;;;16.87;;
58015;SDS011;43809;52.110;20.964;2023-12-04T10:50:23;31.75;;;16.92;;
58015;SDS011;43809;52.110;20.964;2023-12-04T10:52:27;30.17;;;16.10;;
58015;SDS011;43809;52.110;20.964;2023-12-04T10:54:29;35.17;;;17.25;;
58015;SDS011;43809;52.110;20.964;2023-12-04T10:56:31;33.80;;;17.65;;
58015;SDS011;43809;52.110;20.964;2023-12-04T10:58:36;31.90;;;16.55;;
58015;SDS011;43809;52.110;20.964;2023-12-04T11:00:43;31.88;;;17.45;;
58015;SDS011;43809;52.110;20.964;2023-12-04T11:02:45;31.70;;;16.90;;
58015;SDS011;43809;52.110;20.964;2023-12-04T11:04:49;31.92;;;15.55;;
58015;SDS011;43809;52.110;20.964;2023-12-04T11:06:52;28.60;;;15.23;;
58015;SDS011;43809;52.110;20.964;2023-12-04T11:08:58;32.83;;;15.82;;
58015;SDS011;43809;52.110;20.964;2023-12-04T11:11:05;35.08;;;17.85;;
58015;SDS011;43809;52.110;20.964;2023-12-04T11:13:10;31.08;;;15.25;;
58015;SDS011;43809;52.110;20.964;2023-12-04T11:15:14;30.90;;;16.05;;
58015;SDS011;43809;52.110;20.964;2023-12-04T11:17:17;33.03;;;17.40;;
58015;SDS011;43809;52.110;20.964;2023-12-04T11:21:18;27.73;;;14.70;;
58015;SDS011;43809;52.110;20.964;2023-12-04T11:23:20;29.42;;;15.90;;
58015;SDS011;43809;52.110;20.964;2023-12-04T11:25:29;24.65;;;13.70;;
58015;SDS011;43809;52.110;20.964;2023-12-04T11:27:39;23.63;;;13.27;;
58015;SDS011;43809;52.110;20.964;2023-12-04T11:29:53;27.52;;;13.73;;
58015;SDS011;43809;52.110;20.964;2023-12-04T11:31:54;29.33;;;14.77;;
58015;SDS011;43809;52.110;20.964;2023-12-04T11:33:56;30.90;;;15.50;;
58015;SDS011;43809;52.110;20.964;2023-12-04T11:36:13;30.77;;;14.68;;
58015;SDS011;43809;52.110;20.964;2023-12-04T11:38:18;27.73;;;13.35;;
58015;SDS011;43809;52.110;20.964;2023-12-04T11:40:22;27.92;;;14.27;;
58015;SDS011;43809;52.110;20.964;2023-12-04T11:42:30;28.30;;;13.10;;
58015;SDS011;43809;52.110;20.964;2023-12-04T11:44:33;27.67;;;13.43;;
58015;SDS011;43809;52.110;20.964;2023-12-04T11:46:33;27.55;;;13.93;;
58015;SDS011;43809;52.110;20.964;2023-12-04T11:48:36;24.80;;;12.80;;
58015;SDS011;43809;52.110;20.964;2023-12-04T11:50:37;23.75;;;12.15;;
58015;SDS011;43809;52.110;20.964;2023-12-04T11:52:41;22.33;;;11.18;;
58015;SDS011;43809;52.110;20.964;2023-12-04T11:57:20;23.40;;;11.52;;
58015;SDS011;43809;52.110;20.964;2023-12-04T12:01:44;24.60;;;11.80;;
58015;SDS011;43809;52.110;20.964;2023-12-04T12:03:50;24.27;;;12.45;;
58015;SDS011;43809;52.110;20.964;2023-12-04T12:05:54;25.92;;;12.27;;
58015;SDS011;43809;52.110;20.964;2023-12-04T12:10:45;26.08;;;11.40;;
58015;SDS011;43809;52.110;20.964;2023-12-04T12:12:47;19.65;;;10.77;;
58015;SDS011;43809;52.110;20.964;2023-12-04T12:14:51;25.52;;;12.15;;
58015;SDS011;43809;52.110;20.964;2023-12-04T12:19:29;24.33;;;11.07;;
58015;SDS011;43809;52.110;20.964;2023-12-04T12:21:32;22.45;;;10.85;;
58015;SDS011;43809;52.110;20.964;2023-12-04T12:23:33;22.88;;;10.32;;
58015;SDS011;43809;52.110;20.964;2023-12-04T12:28:24;23.35;;;12.10;;
58015;SDS011;43809;52.110;20.964;2023-12-04T12:30:25;24.30;;;11.15;;
58015;SDS011;43809;52.110;20.964;2023-12-04T12:32:26;23.48;;;11.20;;
58015;SDS011;43809;52.110;20.964;2023-12-04T12:37:38;23.27;;;12.10;;
58015;SDS011;43809;52.110;20.964;2023-12-04T12:39:45;20.58;;;10.93;;
58015;SDS011;43809;52.110;20.964;2023-12-04T12:41:47;24.75;;;12.27;;
58015;SDS011;43809;52.110;20.964;2023-12-04T12:43:51;24.60;;;10.70;;
58015;SDS011;43809;52.110;20.964;2023-12-04T12:45:52;23.98;;;11.45;;
58015;SDS011;43809;52.110;20.964;2023-12-04T12:47:53;21.35;;;10.77;;
58015;SDS011;43809;52.110;20.964;2023-12-04T12:50:00;23.10;;;10.80;;
58015;SDS011;43809;52.110;20.964;2023-12-04T12:54:40;24.83;;;12.05;;
58015;SDS011;43809;52.110;20.964;2023-12-04T12:56:41;23.13;;;11.60;;
58015;SDS011;43809;52.110;20.964;2023-12-04T12:58:44;26.10;;;12.18;;
58015;SDS011;43809;52.110;20.964;2023-12-04T13:00:45;22.80;;;11.80;;
58015;SDS011;43809;52.110;20.964;2023-12-04T13:02:46;23.52;;;10.93;;
58015;SDS011;43809;52.110;20.964;2023-12-04T13:04:46;25.05;;;11.95;;
58015;SDS011;43809;52.110;20.964;2023-12-04T13:12:05;23.60;;;12.23;;
58015;SDS011;43809;52.110;20.964;2023-12-04T13:14:06;21.83;;;10.85;;
58015;SDS011;43809;52.110;20.964;2023-12-04T13:16:07;22.90;;;11.50;;
58015;SDS011;43809;52.110;20.964;2023-12-04T13:18:08;21.65;;;11.73;;
58015;SDS011;43809;52.110;20.964;2023-12-04T13:20:09;19.75;;;10.63;;
58015;SDS011;43809;52.110;20.964;2023-12-04T13:22:13;19.42;;;9.93;;
58015;SDS011;43809;52.110;20.964;2023-12-04T13:27:35;23.17;;;11.55;;
58015;SDS011;43809;52.110;20.964;2023-12-04T13:29:39;23.02;;;11.07;;
58015;SDS011;43809;52.110;20.964;2023-12-04T13:31:39;22.45;;;10.73;;
58015;SDS011;43809;52.110;20.964;2023-12-04T13:33:40;21.58;;;10.40;;
58015;SDS011;43809;52.110;20.964;2023-12-04T13:35:43;24.67;;;12.15;;
58015;SDS011;43809;52.110;20.964;2023-12-04T13:37:45;23.73;;;11.38;;
58015;SDS011;43809;52.110;20.964;2023-12-04T13:46:07;24.25;;;12.05;;
58015;SDS011;43809;52.110;20.964;2023-12-04T13:50:12;24.92;;;12.27;;
58015;SDS011;43809;52.110;20.964;2023-12-04T13:52:16;21.50;;;11.30;;
58015;SDS011;43809;52.110;20.964;2023-12-04T13:54:23;22.48;;;10.95;;
58015;SDS011;43809;52.110;20.964;2023-12-04T13:56:38;21.45;;;10.75;;
58015;SDS011;43809;52.110;20.964;2023-12-04T13:58:53;22.10;;;11.02;;
58015;SDS011;43809;52.110;20.964;2023-12-04T14:00:57;24.45;;;12.27;;
58015;SDS011;43809;52.110;20.964;2023-12-04T14:02:58;26.40;;;12.80;;